Time;durP1;ratioP1;P1;durP2;ratioP2;P2;SDS_P1;SDS_P2;PMS_P1;PMS_P2;Temp;Humidity;BMP_temperature;BMP_pressure;BME280_temperature;BME280_humidity;BME280_pressure;Samples;Min_cycle;Max_cycle;Signal;HPM_P1;HPM_P2
2021/08/22 00:02:06;;;;;;;7.43;6.28;;;;;;;17.47;71.35;100748.31;5035124;28;20049;-79
2021/08/22 00:04:31;;;;;;;8.25;6.88;;;;;;;17.42;71.62;100742.28;5028723;28;20030;-79
2021/08/22 00:06:57;;;;;;;9.55;7.03;;;;;;;17.34;71.86;100738.94;5023570;28;20094;-79
2021/08/22 00:09:22;;;;;;;9.35;6.13;;;;;;;17.32;71.83;100735.47;5028301;28;20034;-80
2021/08/22 00:11:48;;;;;;;7.72;6.55;;;;;;;17.34;72.01;100738.94;5043822;28;20041;-79
2021/08/22 00:14:13;;;;;;;7.72;6.47;;;;;;;17.27;72.45;100743.63;5020071;28;20034;-78
2021/08/22 00:16:38;;;;;;;9.65;6.72;;;;;;;17.21;72.90;100737.56;5017153;28;20120;-79
2021/08/22 00:19:04;;;;;;;8.63;7.03;;;;;;;17.21;72.58;100734.91;5034832;28;20041;-78
2021/08/22 00:21:29;;;;;;;9.93;6.72;;;;;;;17.18;72.47;100722.53;5025275;28;20041;-79
2021/08/22 00:23:54;;;;;;;7.55;6.57;;;;;;;17.15;72.87;100724.44;5028581;28;20038;-79
2021/08/22 00:26:19;;;;;;;8.32;6.80;;;;;;;17.18;72.74;100721.66;5029586;28;20057;-78
2021/08/22 00:28:45;;;;;;;8.40;7.03;;;;;;;17.23;72.32;100725.06;5025232;28;20099;-78
2021/08/22 00:31:10;;;;;;;7.40;5.95;;;;;;;17.26;72.32;100714.31;5023542;28;20038;-78
2021/08/22 00:33:35;;;;;;;9.15;7.15;;;;;;;17.26;72.16;100714.31;5023788;28;20051;-79
2021/08/22 00:36:01;;;;;;;9.73;6.70;;;;;;;17.24;72.15;100716.16;5022382;28;20061;-78
2021/08/22 00:38:26;;;;;;;7.75;6.20;;;;;;;17.15;72.23;100711.97;5032928;28;20045;-78
2021/08/22 00:40:51;;;;;;;7.82;6.97;;;;;;;17.13;72.18;100703.13;5030190;28;20049;-78
2021/08/22 00:43:17;;;;;;;9.00;7.35;;;;;;;17.08;72.50;100697.97;5029061;28;20053;-79
2021/08/22 00:45:43;;;;;;;9.25;6.22;;;;;;;17.07;72.23;100698.00;5037355;28;20034;-79
2021/08/22 00:48:10;;;;;;;7.45;6.68;;;;;;;17.04;72.44;100703.44;5029810;28;20041;-78
2021/08/22 00:50:35;;;;;;;7.90;6.68;;;;;;;16.99;72.61;100694.69;5029570;28;20049;-78
2021/08/22 00:53:03;;;;;;;9.45;6.50;;;;;;;16.95;72.78;100696.59;5025697;28;20038;-79
2021/08/22 00:55:29;;;;;;;8.68;6.75;;;;;;;16.92;72.76;100691.31;5029656;28;20063;-79
2021/08/22 00:57:54;;;;;;;8.40;6.63;;;;;;;16.86;72.99;100689.72;5040505;28;20088;-78
2021/08/22 01:00:19;;;;;;;8.15;6.35;;;;;;;16.79;73.16;100693.50;5031432;28;20029;-78
2021/08/22 01:03:06;;;;;;;7.40;6.38;;;;;;;16.74;73.87;100695.41;5029269;28;20543;-78
2021/08/22 01:05:39;;;;;;;7.40;6.53;;;;;;;16.73;73.78;100693.63;5025348;28;20116;-78
2021/08/22 01:08:14;;;;;;;8.65;6.70;;;;;;;16.63;74.50;100700.13;5044106;28;20042;-79
2021/08/22 01:10:42;;;;;;;7.80;7.00;;;;;;;16.67;73.94;100698.28;5028866;28;20049;-78
2021/08/22 01:13:10;;;;;;;9.38;7.68;;;;;;;16.70;73.91;100701.72;5027301;28;20038;-79
2021/08/22 01:15:39;;;;;;;10.73;7.28;;;;;;;16.79;73.91;100697.94;5027728;28;20065;-79
2021/08/22 01:18:08;;;;;;;10.65;7.10;;;;;;;16.82;74.84;100703.16;5028620;28;20041;-79
2021/08/22 01:20:48;;;;;;;8.43;6.97;;;;;;;16.78;75.12;100701.53;5028317;28;20389;-79
2021/08/22 01:23:15;;;;;;;7.85;7.05;;;;;;;16.82;75.03;100697.84;5043122;28;20045;-79
2021/08/22 01:25:42;;;;;;;10.57;7.15;;;;;;;16.96;74.36;100694.78;5019386;28;20029;-79
2021/08/22 01:28:08;;;;;;;9.07;6.60;;;;;;;17.01;73.96;100692.88;5040017;28;20037;-79
2021/08/22 01:30:46;;;;;;;6.82;6.13;;;;;;;17.09;74.04;100680.16;5026306;28;20037;-79
2021/08/22 01:33:13;;;;;;;8.27;7.25;;;;;;;17.18;73.79;100679.00;5023640;28;20031;-79
2021/08/22 01:35:39;;;;;;;10.25;6.93;;;;;;;17.24;73.89;100678.84;5025276;28;20084;-78
2021/08/22 01:38:05;;;;;;;8.68;6.80;;;;;;;17.33;73.93;100673.19;5026438;28;20041;-79
2021/08/22 01:40:32;;;;;;;8.68;6.85;;;;;;;17.39;73.75;100677.44;5027313;28;20037;-79
2021/08/22 01:42:58;;;;;;;10.45;8.30;;;;;;;17.38;73.79;100668.56;5021617;28;20092;-79
2021/08/22 01:45:25;;;;;;;10.73;8.20;;;;;;;17.45;73.41;100674.59;5023663;28;20080;-79
2021/08/22 01:47:51;;;;;;;9.02;7.60;;;;;;;17.49;73.17;100669.09;5027963;28;20037;-78
2021/08/22 01:50:19;;;;;;;7.47;6.68;;;;;;;17.51;72.84;100664.59;5042114;28;20048;-79
2021/08/22 01:52:46;;;;;;;10.00;8.00;;;;;;;17.49;73.14;100658.41;5009540;28;20071;-79
2021/08/22 01:55:11;;;;;;;8.07;7.28;;;;;;;17.48;73.08;100653.16;5029133;28;20105;-78
2021/08/22 01:57:43;;;;;;;10.00;7.35;;;;;;;17.44;72.82;100649.69;5041555;28;20034;-78
2021/08/22 02:00:09;;;;;;;9.57;7.97;;;;;;;17.38;72.86;100659.72;5039164;28;20042;-79
2021/08/22 02:02:52;;;;;;;10.38;8.50;;;;;;;17.24;73.98;100657.50;5025509;28;20038;-79
2021/08/22 02:05:20;;;;;;;8.75;7.78;;;;;;;17.08;73.91;100652.63;5025484;28;20041;-78
2021/08/22 02:07:45;;;;;;;8.80;7.63;;;;;;;17.07;73.61;100648.19;5023037;28;20042;-79
2021/08/22 02:10:23;;;;;;;10.38;8.65;;;;;;;17.05;73.91;100641.16;5021213;28;20131;-79
2021/08/22 02:12:49;;;;;;;12.02;8.27;;;;;;;17.02;73.68;100636.81;5025241;28;20060;-79
2021/08/22 02:15:30;;;;;;;8.65;7.75;;;;;;;16.98;74.18;100632.50;5023473;28;20050;-79
2021/08/22 02:18:03;;;;;;;10.20;8.30;;;;;;;16.93;73.97;100631.78;5017623;28;20034;-79
2021/08/22 02:20:28;;;;;;;8.77;7.88;;;;;;;16.89;73.84;100637.25;5037417;28;20038;-79
2021/08/22 02:22:55;;;;;;;10.18;8.60;;;;;;;16.84;74.08;100637.38;5042335;28;20064;-79
2021/08/22 02:25:21;;;;;;;9.52;8.00;;;;;;;16.74;74.46;100635.88;5027998;28;20045;-79
2021/08/22 02:27:46;;;;;;;8.75;7.85;;;;;;;16.64;74.62;100640.63;5028270;28;20046;-78
2021/08/22 02:30:12;;;;;;;10.05;8.27;;;;;;;16.60;74.55;100634.47;5029182;28;20120;-78
2021/08/22 02:32:38;;;;;;;10.38;8.93;;;;;;;16.51;75.14;100634.78;5028030;28;20061;-79
2021/08/22 02:35:05;;;;;;;9.85;8.20;;;;;;;16.51;74.92;100636.56;5027883;28;20096;-77
2021/08/22 02:37:30;;;;;;;9.35;8.25;;;;;;;16.50;74.81;100635.66;5027861;28;20073;-79
2021/08/22 02:39:56;;;;;;;10.35;8.15;;;;;;;16.49;75.08;100631.28;5023856;28;20050;-78
2021/08/22 02:42:21;;;;;;;9.90;8.40;;;;;;;16.48;74.91;100637.53;5024765;28;20048;-79
2021/08/22 02:44:47;;;;;;;9.73;8.73;;;;;;;16.41;74.76;100641.28;5030721;28;20034;-79
2021/08/22 02:47:14;;;;;;;10.48;8.45;;;;;;;16.36;75.00;100629.88;5038733;28;20038;-78
2021/08/22 02:49:39;;;;;;;9.13;7.60;;;;;;;16.34;75.36;100637.91;5042018;28;20046;-79
2021/08/22 02:52:05;;;;;;;10.30;9.20;;;;;;;16.34;75.23;100637.03;5026959;28;20057;-79
2021/08/22 02:54:30;;;;;;;9.68;8.25;;;;;;;16.33;75.14;100629.97;5027738;28;20042;-79
2021/08/22 02:56:55;;;;;;;9.55;8.65;;;;;;;16.33;75.35;100619.31;5026032;28;20489;-79
2021/08/22 02:59:21;;;;;;;11.77;8.93;;;;;;;16.33;75.35;100629.97;5026503;28;20041;-79
2021/08/22 03:01:46;;;;;;;9.10;7.97;;;;;;;16.35;75.62;100620.16;5026903;28;20113;-79
2021/08/22 03:04:11;;;;;;;10.60;8.70;;;;;;;16.43;75.26;100620.81;5040856;28;20041;-79
2021/08/22 03:06:37;;;;;;;10.93;8.68;;;;;;;16.49;75.50;100617.94;5031850;28;20045;-79
2021/08/22 03:09:03;;;;;;;9.93;8.88;;;;;;;16.52;75.40;100617.00;5023890;28;20053;-78
2021/08/22 03:11:29;;;;;;;9.73;8.73;;;;;;;16.53;75.65;100616.06;5025828;28;20550;-79
2021/08/22 03:13:55;;;;;;;10.10;7.90;;;;;;;16.58;75.24;100614.13;5025784;28;20058;-78
2021/08/22 03:16:20;;;;;;;9.07;8.10;;;;;;;16.62;74.93;100611.34;5021718;28;20097;-79
2021/08/22 03:18:45;;;;;;;11.85;9.68;;;;;;;16.69;75.22;100603.16;5025246;28;20267;-79
2021/08/22 03:21:11;;;;;;;11.38;9.55;;;;;;;16.71;75.20;100604.84;5025624;28;20034;-79
2021/08/22 03:23:36;;;;;;;9.32;8.32;;;;;;;16.72;75.12;100608.41;5025009;28;20480;-79
2021/08/22 03:26:02;;;;;;;9.93;8.23;;;;;;;16.76;74.97;100608.25;5026242;28;20041;-79
2021/08/22 03:28:28;;;;;;;12.27;9.70;;;;;;;16.75;75.09;100605.66;5034431;28;20088;-78
2021/08/22 03:30:53;;;;;;;11.18;8.95;;;;;;;16.78;75.17;100603.78;5026950;28;20041;-78
2021/08/22 03:33:19;;;;;;;10.27;8.45;;;;;;;16.80;74.69;100603.75;5025562;28;20105;-78
2021/08/22 03:35:45;;;;;;;10.48;9.38;;;;;;;16.77;75.26;100615.38;5025861;28;20042;-78
2021/08/22 03:38:10;;;;;;;11.75;9.77;;;;;;;16.59;76.21;100622.09;5025657;28;20076;-79
2021/08/22 03:40:35;;;;;;;12.43;9.52;;;;;;;16.58;75.43;100624.78;5025405;28;20038;-78
2021/08/22 03:43:01;;;;;;;11.27;9.52;;;;;;;16.59;75.42;100611.44;5025693;28;20096;-78
2021/08/22 03:45:26;;;;;;;13.63;10.07;;;;;;;16.51;75.72;100613.47;5024421;28;20415;-78
2021/08/22 03:47:51;;;;;;;11.02;9.93;;;;;;;16.38;76.15;100618.25;5025018;28;20042;-78
2021/08/22 03:50:17;;;;;;;12.93;11.63;;;;;;;16.35;77.34;100617.50;5023347;28;20053;-78
2021/08/22 03:52:42;;;;;;;12.13;10.90;;;;;;;16.38;75.96;100612.06;5021097;28;20029;-78
2021/08/22 03:55:07;;;;;;;13.40;9.52;;;;;;;16.39;76.24;100608.47;5023809;28;20073;-78
2021/08/22 03:57:33;;;;;;;9.63;8.63;;;;;;;16.43;76.43;100602.16;5020978;28;20072;-78
2021/08/22 03:59:58;;;;;;;9.60;8.57;;;;;;;16.51;76.23;100601.94;5021335;28;20124;-78
2021/08/22 04:02:23;;;;;;;9.45;8.32;;;;;;;16.57;76.11;100599.06;5037018;28;20045;-78
2021/08/22 04:05:05;;;;;;;14.23;9.52;;;;;;;16.57;76.24;100591.94;5019479;28;20416;-78
2021/08/22 04:07:31;;;;;;;9.55;8.52;;;;;;;16.60;75.96;100581.19;5021297;28;20132;-78
2021/08/22 04:09:57;;;;;;;10.77;9.10;;;;;;;16.62;75.56;100579.38;5021552;28;20630;-78
2021/08/22 04:12:23;;;;;;;9.55;8.15;;;;;;;16.63;75.72;100585.56;5021665;28;20102;-78
2021/08/22 04:14:48;;;;;;;10.07;8.43;;;;;;;16.61;75.77;100587.38;5021412;28;20065;-78
2021/08/22 04:17:13;;;;;;;11.07;8.52;;;;;;;16.61;75.49;100590.06;5021289;28;20523;-78
2021/08/22 04:19:41;;;;;;;10.13;9.00;;;;;;;16.57;75.73;100591.94;5023876;28;20037;-79
2021/08/22 04:22:07;;;;;;;10.77;9.68;;;;;;;16.61;75.78;100590.06;5021982;28;20042;-78
2021/08/22 04:24:34;;;;;;;10.52;9.40;;;;;;;16.70;75.78;100596.91;5023981;28;20041;-78
2021/08/22 04:26:59;;;;;;;10.65;8.73;;;;;;;16.79;75.90;100591.31;5022666;28;20034;-78
2021/08/22 04:29:25;;;;;;;11.88;9.82;;;;;;;16.87;75.54;100583.97;5024485;28;20060;-78
2021/08/22 04:31:50;;;;;;;11.27;9.70;;;;;;;16.96;75.54;100586.34;5025756;28;20033;-78
2021/08/22 04:34:16;;;;;;;11.05;9.18;;;;;;;17.03;75.43;100585.25;5028654;28;20052;-78
2021/08/22 04:36:42;;;;;;;10.57;9.48;;;;;;;17.07;75.08;100576.22;5029456;28;20037;-78
2021/08/22 04:39:07;;;;;;;10.00;8.82;;;;;;;17.19;75.22;100579.41;5030078;28;20048;-78
2021/08/22 04:41:32;;;;;;;11.43;9.57;;;;;;;17.26;74.65;100576.47;5028581;28;20042;-79
2021/08/22 04:43:58;;;;;;;9.85;8.80;;;;;;;17.32;74.52;100564.75;5029099;28;20045;-78
2021/08/22 04:46:23;;;;;;;10.73;8.95;;;;;;;17.33;73.99;100561.16;5024224;28;20038;-79
2021/08/22 04:48:48;;;;;;;10.18;9.18;;;;;;;17.30;74.27;100559.47;5025509;28;20034;-78
2021/08/22 04:51:14;;;;;;;11.85;8.98;;;;;;;17.31;73.91;100563.84;5025287;28;20046;-78
2021/08/22 04:53:39;;;;;;;10.52;9.05;;;;;;;17.32;73.99;100567.41;5024931;28;20042;-78
2021/08/22 04:56:08;;;;;;;11.45;10.05;;;;;;;17.38;74.13;100563.66;5026544;28;20060;-78
2021/08/22 04:58:34;;;;;;;12.10;8.40;;;;;;;17.47;73.80;100561.53;5027480;28;20489;-79
2021/08/22 05:00:59;;;;;;;9.57;8.57;;;;;;;17.62;73.66;100557.47;5028146;28;20060;-79
2021/08/22 05:03:25;;;;;;;10.98;8.68;;;;;;;17.69;73.68;100556.34;5026592;28;20089;-78
2021/08/22 05:05:50;;;;;;;12.02;9.27;;;;;;;17.76;73.94;100554.31;5030546;28;20093;-79
2021/08/22 05:08:17;;;;;;;11.35;9.77;;;;;;;17.89;73.39;100549.44;5029230;28;20038;-79
2021/08/22 05:10:44;;;;;;;10.57;9.20;;;;;;;18.00;73.27;100541.03;5045004;28;20037;-78
2021/08/22 05:13:09;;;;;;;10.18;9.07;;;;;;;18.13;73.26;100537.00;5041897;28;20049;-78
2021/08/22 05:15:34;;;;;;;10.18;8.48;;;;;;;18.25;72.66;100541.88;5019931;28;20044;-78
2021/08/22 05:18:00;;;;;;;10.70;9.25;;;;;;;18.37;72.15;100537.88;5025650;28;20124;-79
2021/08/22 05:20:25;;;;;;;10.13;8.63;;;;;;;18.44;71.31;100544.72;5025195;28;20067;-78
2021/08/22 05:22:50;;;;;;;10.13;8.93;;;;;;;18.49;71.39;100547.22;5029238;28;20038;-78
2021/08/22 05:25:16;;;;;;;10.27;8.98;;;;;;;18.56;71.31;100546.06;5028704;28;20042;-79
2021/08/22 05:27:41;;;;;;;10.52;9.02;;;;;;;18.65;71.42;100545.69;5029047;28;20045;-78
2021/08/22 05:30:07;;;;;;;11.13;9.70;;;;;;;18.72;70.95;100544.53;5029289;28;20025;-78
2021/08/22 05:32:32;;;;;;;11.68;9.98;;;;;;;18.79;71.00;100548.72;5034549;28;20022;-78
2021/08/22 05:34:57;;;;;;;10.15;9.05;;;;;;;18.89;70.38;100549.25;5022334;28;20100;-78
2021/08/22 05:37:23;;;;;;;10.73;9.38;;;;;;;18.99;70.52;100545.25;5024399;28;20038;-79
2021/08/22 05:39:48;;;;;;;10.77;9.27;;;;;;;19.11;70.09;100553.72;5024046;28;20041;-77
2021/08/22 05:42:14;;;;;;;9.45;8.43;;;;;;;19.19;69.94;100567.63;5024565;28;20061;-78
2021/08/22 05:44:39;;;;;;;10.27;9.18;;;;;;;19.22;69.79;100565.69;5025368;28;20503;-77
2021/08/22 05:47:05;;;;;;;9.23;8.25;;;;;;;19.24;69.95;100561.16;5023121;28;20046;-79
2021/08/22 05:49:30;;;;;;;9.40;8.40;;;;;;;19.39;69.65;100556.13;5024725;28;20029;-79
2021/08/22 05:51:55;;;;;;;8.00;7.20;;;;;;;19.47;69.18;100556.66;5022191;28;20049;-78
2021/08/22 05:54:21;;;;;;;9.68;8.38;;;;;;;19.49;68.87;100554.75;5017841;28;20184;-78
2021/08/22 05:56:46;;;;;;;10.82;7.63;;;;;;;19.58;68.72;100554.38;5018346;28;20072;-78
2021/08/22 05:59:11;;;;;;;8.30;7.40;;;;;;;19.67;68.09;100561.16;5022664;28;20037;-78
2021/08/22 06:01:37;;;;;;;10.00;7.25;;;;;;;19.76;68.00;100563.47;5026330;28;20030;-78
2021/08/22 06:04:02;;;;;;;9.00;7.53;;;;;;;19.79;68.53;100557.09;5036937;28;20042;-78
2021/08/22 06:06:28;;;;;;;9.35;7.93;;;;;;;19.86;68.40;100546.06;5021276;28;20412;-78
2021/08/22 06:08:53;;;;;;;10.35;8.30;;;;;;;19.91;67.69;100535.09;5023644;28;20037;-78
2021/08/22 06:11:18;;;;;;;8.50;7.10;;;;;;;19.95;67.95;100531.38;5024494;28;20038;-78
2021/08/22 06:13:44;;;;;;;9.32;8.10;;;;;;;19.99;67.32;100527.63;5021142;28;20102;-78
2021/08/22 06:16:09;;;;;;;7.88;7.07;;;;;;;19.98;67.23;100527.69;5017115;28;20030;-79
2021/08/22 06:18:34;;;;;;;9.20;7.78;;;;;;;20.00;67.17;100524.00;5024082;28;20042;-78
2021/08/22 06:21:00;;;;;;;8.50;7.60;;;;;;;20.05;67.48;100524.66;5034418;28;20028;-78
2021/08/22 06:23:25;;;;;;;9.38;7.43;;;;;;;20.09;67.51;100528.06;5026517;28;20038;-78
2021/08/22 06:25:50;;;;;;;8.38;7.47;;;;;;;20.13;67.24;100527.84;5012164;28;20072;-78
2021/08/22 06:28:16;;;;;;;8.23;7.30;;;;;;;20.09;66.80;100518.19;5015270;28;20049;-78
2021/08/22 06:30:42;;;;;;;9.75;6.57;;;;;;;20.09;66.95;100525.38;5015542;28;20036;-77
2021/08/22 06:33:09;;;;;;;9.68;7.10;;;;;;;20.09;67.25;100528.06;5017480;28;20042;-78
2021/08/22 06:35:34;;;;;;;8.73;7.22;;;;;;;20.08;66.60;100529.00;5015957;28;20068;-78
2021/08/22 06:37:59;;;;;;;12.07;7.45;;;;;;;20.08;66.72;100535.22;5015724;28;20022;-78
2021/08/22 06:40:25;;;;;;;8.13;6.93;;;;;;;20.06;66.89;100534.41;5015476;28;20068;-78
2021/08/22 06:42:50;;;;;;;8.98;7.65;;;;;;;20.07;67.14;100538.88;5016328;28;20069;-78
2021/08/22 06:45:15;;;;;;;8.43;6.80;;;;;;;20.09;67.70;100545.00;5017589;28;20065;-78
2021/08/22 06:47:41;;;;;;;9.27;7.43;;;;;;;20.06;67.51;100552.31;5017830;28;20034;-78
2021/08/22 06:50:06;;;;;;;8.55;7.65;;;;;;;20.07;67.43;100536.19;5016887;28;20061;-78
2021/08/22 06:52:32;;;;;;;9.00;7.07;;;;;;;20.12;67.30;100539.53;5037146;28;20042;-78
2021/08/22 06:54:57;;;;;;;7.93;7.10;;;;;;;20.14;67.75;100537.63;5027495;28;20133;-79
2021/08/22 06:57:22;;;;;;;11.52;7.30;;;;;;;20.22;67.08;100553.34;5017556;28;20077;-79
2021/08/22 06:59:48;;;;;;;7.88;6.85;;;;;;;20.28;67.25;100537.00;5020516;28;20030;-78
2021/08/22 07:02:13;;;;;;;8.35;7.35;;;;;;;20.31;66.93;100533.31;5015052;28;20045;-78
2021/08/22 07:04:39;;;;;;;8.13;7.30;;;;;;;20.35;66.77;100542.94;5020837;28;20131;-78
2021/08/22 07:07:05;;;;;;;9.15;7.25;;;;;;;20.56;66.71;100544.63;5018914;28;20037;-78
2021/08/22 07:09:30;;;;;;;8.25;6.60;;;;;;;20.90;65.94;100548.38;5034171;28;20041;-78
2021/08/22 07:11:55;;;;;;;8.52;6.97;;;;;;;21.26;64.84;100560.94;5017888;28;20034;-79
2021/08/22 07:14:21;;;;;;;10.00;6.70;;;;;;;21.50;64.69;100556.16;5024039;28;20404;-79
2021/08/22 07:16:47;;;;;;;7.07;6.05;;;;;;;21.64;63.07;100552.75;5018944;28;20400;-79
2021/08/22 07:19:13;;;;;;;7.40;6.10;;;;;;;21.86;62.64;100548.03;5018672;28;20044;-78
2021/08/22 07:21:39;;;;;;;9.60;6.47;;;;;;;22.07;61.93;100535.25;5035138;28;20274;-78
2021/08/22 07:24:04;;;;;;;7.75;5.97;;;;;;;22.18;61.53;100541.88;5018791;28;20053;-79
2021/08/22 07:26:30;;;;;;;7.15;6.03;;;;;;;22.22;61.49;100535.44;5020640;28;20038;-79
2021/08/22 07:28:55;;;;;;;9.10;5.25;;;;;;;22.27;61.28;100538.72;5034304;28;20101;-78
2021/08/22 07:31:20;;;;;;;6.88;5.38;;;;;;;22.31;61.54;100538.47;5020765;28;20049;-78
2021/08/22 07:33:46;;;;;;;7.05;5.30;;;;;;;22.45;61.12;100544.88;5023830;28;20041;-78
2021/08/22 07:36:12;;;;;;;7.63;4.78;;;;;;;22.45;61.51;100537.72;5023615;28;20480;-78
2021/08/22 07:38:38;;;;;;;6.47;5.00;;;;;;;22.57;61.03;100536.16;5024502;28;20034;-78
2021/08/22 07:41:03;;;;;;;6.00;5.10;;;;;;;22.76;60.05;100535.97;5023660;28;20018;-79
2021/08/22 07:43:28;;;;;;;5.85;4.82;;;;;;;23.03;59.67;100532.69;5005051;28;20045;-79
2021/08/22 07:45:54;;;;;;;5.38;4.75;;;;;;;23.16;59.38;100539.97;5022275;28;20048;-79
2021/08/22 07:48:19;;;;;;;6.63;4.88;;;;;;;23.34;58.43;100543.41;5023490;28;20029;-78
2021/08/22 07:50:44;;;;;;;7.30;4.53;;;;;;;23.47;58.24;100545.38;5021142;28;20164;-79
2021/08/22 07:53:11;;;;;;;6.40;4.53;;;;;;;23.67;58.26;100541.47;5038728;28;20029;-79
2021/08/22 07:55:36;;;;;;;7.85;4.60;;;;;;;23.82;58.09;100543.28;5023959;28;20561;-78
2021/08/22 07:58:01;;;;;;;6.18;4.50;;;;;;;23.90;57.44;100540.13;5021710;28;20030;-80
2021/08/22 08:00:27;;;;;;;5.15;3.42;;;;;;;23.91;57.26;100542.69;5019649;28;20038;-78
2021/08/22 08:02:52;;;;;;;5.82;4.38;;;;;;;24.04;57.49;100529.34;5022993;28;20040;-78
2021/08/22 08:05:18;;;;;;;4.90;4.05;;;;;;;24.05;56.65;100534.63;5026321;28;20408;-78
2021/08/22 08:07:43;;;;;;;5.10;3.58;;;;;;;23.92;55.82;100533.66;5024201;28;20029;-78
2021/08/22 08:10:09;;;;;;;5.55;3.95;;;;;;;23.82;56.33;100541.44;5022878;28;20037;-79
2021/08/22 08:12:35;;;;;;;6.40;3.75;;;;;;;23.91;55.53;100542.69;5021634;28;20038;-79
2021/08/22 08:15:01;;;;;;;5.47;3.78;;;;;;;24.03;55.23;100541.94;5023097;28;20052;-79
2021/08/22 08:17:26;;;;;;;4.68;3.40;;;;;;;24.22;54.80;100541.66;5024293;28;20026;-79
2021/08/22 08:19:52;;;;;;;5.65;3.90;;;;;;;24.34;54.71;100545.44;5020680;28;20061;-79
2021/08/22 08:22:18;;;;;;;4.78;4.07;;;;;;;24.48;54.95;100534.66;5023318;28;20033;-79
2021/08/22 08:24:44;;;;;;;3.85;3.00;;;;;;;24.68;54.56;100532.47;5021252;28;20029;-79
2021/08/22 08:27:09;;;;;;;5.20;3.70;;;;;;;24.84;53.95;100540.47;5022404;28;20042;-79
2021/08/22 08:29:35;;;;;;;5.18;3.67;;;;;;;24.97;53.23;100538.69;5022172;28;20038;-79
2021/08/22 08:32:01;;;;;;;6.97;3.92;;;;;;;25.04;52.86;100539.13;5024742;28;20041;-79
2021/08/22 08:34:26;;;;;;;5.93;3.75;;;;;;;25.00;53.05;100541.19;5035726;28;20026;-79
2021/08/22 08:36:51;;;;;;;4.88;3.80;;;;;;;24.74;52.93;100542.88;5018529;28;20312;-79
2021/08/22 08:39:17;;;;;;;5.68;3.30;;;;;;;24.92;53.18;100544.38;5021350;28;20489;-79
2021/08/22 08:41:42;;;;;;;5.30;3.88;;;;;;;25.11;53.40;100546.72;5019819;28;20042;-79
2021/08/22 08:44:12;;;;;;;4.88;3.85;;;;;;;25.00;52.80;100546.59;5020905;28;20045;-79
2021/08/22 08:46:42;;;;;;;9.00;4.43;;;;;;;24.96;52.71;100553.13;5036040;28;20065;-79
2021/08/22 08:49:32;;;;;;;5.07;3.47;;;;;;;25.12;53.20;100547.59;5022405;28;20033;-79
2021/08/22 08:52:27;;;;;;;5.35;4.05;;;;;;;24.98;52.80;100547.66;5022088;28;20953;-79
2021/08/22 08:55:04;;;;;;;5.78;3.33;;;;;;;25.17;52.44;100548.19;5021725;28;20041;-78
2021/08/22 08:57:31;;;;;;;6.78;4.13;;;;;;;25.16;52.39;100549.16;5021781;28;20044;-78
2021/08/22 08:59:56;;;;;;;6.57;3.70;;;;;;;25.25;52.05;100547.66;5021738;28;20030;-78
2021/08/22 09:02:22;;;;;;;6.60;3.70;;;;;;;25.28;52.48;100537.53;5024441;28;20033;-77
2021/08/22 09:05:02;;;;;;;5.38;3.70;;;;;;;25.53;52.29;100541.25;5018238;28;20034;-78
2021/08/22 09:08:04;;;;;;;7.43;3.83;;;;;;;25.61;51.96;100544.31;5021138;28;20097;-78
2021/08/22 09:11:27;;;;;;;5.10;3.38;;;;;;;25.65;52.09;100539.53;5023008;28;20046;-78
2021/08/22 09:14:11;;;;;;;6.85;3.80;;;;;;;25.69;51.93;100544.63;5016704;28;20077;-78
2021/08/22 09:17:07;;;;;;;4.53;3.60;;;;;;;25.68;52.37;100550.16;5023460;28;20034;-79
2021/08/22 09:20:20;;;;;;;5.32;4.00;;;;;;;25.98;52.43;100552.59;5024220;28;20030;-78
2021/08/22 09:23:10;;;;;;;5.60;3.58;;;;;;;26.08;50.27;100547.41;5022299;28;20033;-78
2021/08/22 09:26:17;;;;;;;6.20;3.42;;;;;;;26.03;49.17;100545.00;5027687;28;20499;-78
2021/08/22 09:29:21;;;;;;;6.03;3.67;;;;;;;26.15;49.16;100554.13;5018770;28;20046;-78
2021/08/22 09:32:25;;;;;;;4.68;3.53;;;;;;;26.06;47.35;100549.34;5021042;28;20030;-79
2021/08/22 09:35:15;;;;;;;5.47;3.13;;;;;;;25.97;48.18;100556.28;5022939;28;20045;-78
2021/08/22 09:38:15;;;;;;;4.60;3.25;;;;;;;25.81;47.24;100564.56;5026991;28;20025;-78
2021/08/22 09:40:59;;;;;;;5.35;3.03;;;;;;;25.50;47.56;100555.84;5028334;28;20396;-79
2021/08/22 09:44:02;;;;;;;5.35;3.70;;;;;;;25.44;48.96;100556.28;5030279;28;20044;-78
2021/08/22 09:46:45;;;;;;;4.90;3.60;;;;;;;25.46;49.21;100553.44;5027569;28;20073;-79
2021/08/22 09:49:29;;;;;;;4.50;3.38;;;;;;;25.48;47.35;100555.06;5024225;28;20038;-79
2021/08/22 09:52:24;;;;;;;4.25;3.13;;;;;;;25.50;48.06;100557.69;5026011;28;20077;-79
2021/08/22 09:54:56;;;;;;;4.65;2.92;;;;;;;25.35;48.23;100563.16;5040851;28;20130;-79
2021/08/22 09:57:38;;;;;;;;;;;;;;;25.20;48.24;100560.59;5039334;28;20065;-80
2021/08/22 10:00:09;;;;;;;;;;;;;;;25.11;48.75;100562.06;5021686;28;19925;-80
2021/08/22 10:02:57;;;;;;;4.88;3.50;;;;;;;24.93;49.80;100564.13;5026080;28;19913;-79
2021/08/22 10:05:45;;;;;;;4.10;3.38;;;;;;;25.04;49.33;100566.13;5046514;28;20037;-79
2021/08/22 10:08:15;;;;;;;4.28;3.38;;;;;;;25.13;49.62;100565.53;5032992;28;20045;-79
2021/08/22 10:10:52;;;;;;;4.45;3.15;;;;;;;25.21;49.37;100557.81;5024626;28;20038;-79
2021/08/22 10:13:17;;;;;;;5.15;3.92;;;;;;;25.18;50.00;100568.84;5023640;28;20034;-78
2021/08/22 10:15:43;;;;;;;4.00;2.97;;;;;;;25.00;49.90;100559.22;5025764;28;20041;-79
2021/08/22 10:18:08;;;;;;;5.93;3.60;;;;;;;25.00;50.03;100565.47;5026541;28;20053;-77
2021/08/22 10:20:40;;;;;;;5.22;3.17;;;;;;;24.92;50.24;100563.28;5019332;28;20109;-78
2021/08/22 10:23:46;;;;;;;4.63;3.00;;;;;;;24.80;50.84;100566.78;5032361;28;20056;-78
2021/08/22 10:26:47;;;;;;;4.30;2.85;;;;;;;24.76;51.04;100565.25;5019342;28;20039;-78
2021/08/22 10:29:21;;;;;;;4.72;3.22;;;;;;;24.77;50.87;100564.28;5036105;28;20089;-78
2021/08/22 10:32:09;;;;;;;4.60;3.40;;;;;;;24.79;51.40;100565.06;5022197;28;20038;-79
2021/08/22 10:34:35;;;;;;;5.25;2.97;;;;;;;24.73;51.58;100573.53;5029026;28;20069;-79
2021/08/22 10:37:25;;;;;;;4.82;3.50;;;;;;;24.57;51.89;100578.19;5027556;28;20034;-79
2021/08/22 10:39:51;;;;;;;4.85;3.25;;;;;;;24.38;52.52;100584.72;5017559;28;20038;-78
2021/08/22 10:42:21;;;;;;;5.07;3.20;;;;;;;24.27;52.99;100589.91;5023182;28;20029;-78
2021/08/22 10:44:47;;;;;;;4.47;3.00;;;;;;;24.25;53.59;100590.00;5037868;28;20033;-78
2021/08/22 10:47:29;;;;;;;5.22;3.22;;;;;;;24.22;53.41;100587.50;5022049;28;20034;-77
2021/08/22 10:49:55;;;;;;;5.93;3.25;;;;;;;24.29;53.37;100596.09;5019899;28;20121;-78
2021/08/22 10:52:28;;;;;;;3.80;2.95;;;;;;;24.18;53.30;100593.16;5020747;28;20030;-78
2021/08/22 10:55:05;;;;;;;4.45;2.97;;;;;;;24.15;53.71;100590.66;5019943;28;20124;-77
2021/08/22 10:57:47;;;;;;;4.93;3.20;;;;;;;24.16;53.77;100590.59;5018051;28;20030;-77
2021/08/22 11:00:32;;;;;;;4.53;3.38;;;;;;;24.20;53.65;100591.25;5020915;28;20042;-79
2021/08/22 11:03:20;;;;;;;4.70;3.63;;;;;;;24.29;53.36;100579.91;5021398;28;20149;-78
2021/08/22 11:05:47;;;;;;;6.35;3.17;;;;;;;24.41;53.00;100583.66;5021522;28;20045;-78
2021/08/22 11:08:13;;;;;;;4.00;2.92;;;;;;;24.42;52.75;100586.25;5033467;28;20034;-78
2021/08/22 11:10:39;;;;;;;5.05;3.03;;;;;;;24.60;52.59;100581.56;5021328;28;20081;-77
2021/08/22 11:13:04;;;;;;;4.43;3.17;;;;;;;24.83;52.54;100582.75;5025843;28;20042;-78
2021/08/22 11:15:31;;;;;;;4.82;3.30;;;;;;;25.01;51.52;100586.09;5027028;28;20328;-78
2021/08/22 11:18:04;;;;;;;6.38;3.30;;;;;;;25.26;51.43;100587.22;5032164;28;20026;-78
2021/08/22 11:20:31;;;;;;;4.50;3.03;;;;;;;25.42;51.49;100593.34;5025724;28;20061;-79
2021/08/22 11:23:07;;;;;;;4.50;3.10;;;;;;;25.85;50.94;100581.44;5030669;28;20080;-78
2021/08/22 11:25:34;;;;;;;4.43;3.10;;;;;;;26.42;49.93;100581.03;5027374;28;20038;-78
2021/08/22 11:28:07;;;;;;;6.20;3.40;;;;;;;26.74;48.43;100569.75;5027658;28;20049;-78
2021/08/22 11:30:32;;;;;;;4.50;3.20;;;;;;;27.03;47.20;100567.59;5029883;28;20030;-79
2021/08/22 11:32:58;;;;;;;4.82;3.10;;;;;;;27.01;46.24;100573.13;5030265;28;20570;-80
2021/08/22 11:35:25;;;;;;;7.22;3.25;;;;;;;26.91;46.21;100571.19;5017799;28;20037;-81